sensor_id;sensor_type;location;lat;lon;timestamp;pressure;altitude;pressure_sealevel;temperature;humidity
57250;BME280;43102;52.014;-0.680;2023-01-31T00:00:00;101746;;;5.36;73.63
57250;BME280;43102;52.014;-0.680;2023-01-31T00:01:03;101733;;;5.42;73.58
57250;BME280;43102;52.014;-0.680;2023-01-31T00:02:00;101733;;;5.42;73.58
57250;BME280;43102;52.014;-0.680;2023-01-31T00:03:00;101733;;;5.42;73.58
57250;BME280;43102;52.014;-0.680;2023-01-31T00:04:01;101733;;;5.42;73.58
57250;BME280;43102;52.014;-0.680;2023-01-31T00:05:00;101733;;;5.42;73.58
57250;BME280;43102;52.014;-0.680;2023-01-31T00:07:00;101708;;;5.45;73.64
57250;BME280;43102;52.014;-0.680;2023-01-31T00:08:00;101708;;;5.45;73.64
57250;BME280;43102;52.014;-0.680;2023-01-31T00:09:00;101708;;;5.45;73.64
57250;BME280;43102;52.014;-0.680;2023-01-31T00:10:00;101708;;;5.45;73.64
57250;BME280;43102;52.014;-0.680;2023-01-31T00:11:00;101704;;;5.45;73.77
57250;BME280;43102;52.014;-0.680;2023-01-31T00:12:00;101704;;;5.45;73.77
57250;BME280;43102;52.014;-0.680;2023-01-31T00:13:00;101704;;;5.45;73.77
57250;BME280;43102;52.014;-0.680;2023-01-31T00:14:00;101704;;;5.45;73.77
57250;BME280;43102;52.014;-0.680;2023-01-31T00:15:00;101704;;;5.45;73.77
57250;BME280;43102;52.014;-0.680;2023-01-31T00:16:00;101691;;;5.48;73.78
57250;BME280;43102;52.014;-0.680;2023-01-31T00:17:00;101691;;;5.48;73.78
57250;BME280;43102;52.014;-0.680;2023-01-31T00:18:00;101691;;;5.48;73.78
57250;BME280;43102;52.014;-0.680;2023-01-31T00:19:00;101691;;;5.48;73.78
57250;BME280;43102;52.014;-0.680;2023-01-31T00:20:00;101691;;;5.48;73.78
57250;BME280;43102;52.014;-0.680;2023-01-31T00:21:04;101700;;;5.52;73.79
57250;BME280;43102;52.014;-0.680;2023-01-31T00:22:00;101700;;;5.52;73.79
57250;BME280;43102;52.014;-0.680;2023-01-31T00:23:00;101700;;;5.52;73.79
57250;BME280;43102;52.014;-0.680;2023-01-31T00:24:00;101700;;;5.52;73.79
57250;BME280;43102;52.014;-0.680;2023-01-31T00:25:00;101700;;;5.52;73.79
57250;BME280;43102;52.014;-0.680;2023-01-31T00:26:16;101697;;;5.52;73.75
57250;BME280;43102;52.014;-0.680;2023-01-31T00:27:00;101697;;;5.52;73.75
57250;BME280;43102;52.014;-0.680;2023-01-31T00:28:00;101697;;;5.52;73.75
57250;BME280;43102;52.014;-0.680;2023-01-31T00:29:01;101697;;;5.52;73.75
57250;BME280;43102;52.014;-0.680;2023-01-31T00:30:00;101697;;;5.52;73.75
57250;BME280;43102;52.014;-0.680;2023-01-31T00:31:00;101689;;;5.55;73.72
57250;BME280;43102;52.014;-0.680;2023-01-31T00:32:00;101689;;;5.55;73.72
57250;BME280;43102;52.014;-0.680;2023-01-31T00:33:00;101689;;;5.55;73.72
57250;BME280;43102;52.014;-0.680;2023-01-31T00:34:00;101689;;;5.55;73.72
57250;BME280;43102;52.014;-0.680;2023-01-31T00:35:00;101689;;;5.55;73.72
57250;BME280;43102;52.014;-0.680;2023-01-31T00:36:02;101688;;;5.57;73.79
57250;BME280;43102;52.014;-0.680;2023-01-31T00:37:00;101688;;;5.57;73.79
57250;BME280;43102;52.014;-0.680;2023-01-31T00:38:00;101688;;;5.57;73.79
57250;BME280;43102;52.014;-0.680;2023-01-31T00:39:01;101688;;;5.57;73.79
57250;BME280;43102;52.014;-0.680;2023-01-31T00:40:00;101688;;;5.57;73.79
57250;BME280;43102;52.014;-0.680;2023-01-31T00:41:00;101677;;;5.58;73.84
57250;BME280;43102;52.014;-0.680;2023-01-31T00:42:00;101677;;;5.58;73.84
57250;BME280;43102;52.014;-0.680;2023-01-31T00:43:00;101677;;;5.58;73.84
57250;BME280;43102;52.014;-0.680;2023-01-31T00:44:00;101677;;;5.58;73.84
57250;BME280;43102;52.014;-0.680;2023-01-31T00:45:00;101677;;;5.58;73.84
57250;BME280;43102;52.014;-0.680;2023-01-31T00:46:00;101683;;;5.62;73.74
57250;BME280;43102;52.014;-0.680;2023-01-31T00:47:00;101683;;;5.62;73.74
57250;BME280;43102;52.014;-0.680;2023-01-31T00:48:00;101683;;;5.62;73.74
57250;BME280;43102;52.014;-0.680;2023-01-31T00:49:00;101683;;;5.62;73.74
57250;BME280;43102;52.014;-0.680;2023-01-31T00:50:00;101683;;;5.62;73.74
57250;BME280;43102;52.014;-0.680;2023-01-31T00:51:00;101679;;;5.64;73.89
57250;BME280;43102;52.014;-0.680;2023-01-31T00:52:00;101679;;;5.64;73.89
57250;BME280;43102;52.014;-0.680;2023-01-31T00:53:00;101679;;;5.64;73.89
57250;BME280;43102;52.014;-0.680;2023-01-31T00:54:00;101679;;;5.64;73.89
57250;BME280;43102;52.014;-0.680;2023-01-31T00:55:00;101679;;;5.64;73.89
57250;BME280;43102;52.014;-0.680;2023-01-31T00:56:02;101678;;;5.65;73.91
57250;BME280;43102;52.014;-0.680;2023-01-31T00:57:00;101678;;;5.65;73.91
57250;BME280;43102;52.014;-0.680;2023-01-31T00:58:00;101678;;;5.65;73.91
57250;BME280;43102;52.014;-0.680;2023-01-31T00:59:00;101678;;;5.65;73.91
57250;BME280;43102;52.014;-0.680;2023-01-31T01:00:00;101678;;;5.65;73.91
57250;BME280;43102;52.014;-0.680;2023-01-31T01:01:16;101677;;;5.69;73.87
57250;BME280;43102;52.014;-0.680;2023-01-31T01:02:00;101677;;;5.69;73.87
57250;BME280;43102;52.014;-0.680;2023-01-31T01:03:00;101677;;;5.69;73.87
57250;BME280;43102;52.014;-0.680;2023-01-31T01:04:00;101677;;;5.69;73.87
57250;BME280;43102;52.014;-0.680;2023-01-31T01:05:00;101677;;;5.69;73.87
57250;BME280;43102;52.014;-0.680;2023-01-31T01:06:00;101673;;;5.73;73.87
57250;BME280;43102;52.014;-0.680;2023-01-31T01:07:00;101673;;;5.73;73.87
57250;BME280;43102;52.014;-0.680;2023-01-31T01:08:00;101673;;;5.73;73.87
57250;BME280;43102;52.014;-0.680;2023-01-31T01:09:00;101673;;;5.73;73.87
57250;BME280;43102;52.014;-0.680;2023-01-31T01:10:00;101673;;;5.73;73.87
57250;BME280;43102;52.014;-0.680;2023-01-31T01:11:04;101670;;;5.73;74.18
57250;BME280;43102;52.014;-0.680;2023-01-31T01:12:00;101670;;;5.73;74.18
57250;BME280;43102;52.014;-0.680;2023-01-31T01:13:00;101670;;;5.73;74.18
57250;BME280;43102;52.014;-0.680;2023-01-31T01:14:00;101670;;;5.73;74.18
57250;BME280;43102;52.014;-0.680;2023-01-31T01:15:00;101670;;;5.73;74.18
57250;BME280;43102;52.014;-0.680;2023-01-31T01:16:04;101671;;;5.80;74.39
57250;BME280;43102;52.014;-0.680;2023-01-31T01:17:00;101671;;;5.80;74.39
57250;BME280;43102;52.014;-0.680;2023-01-31T01:18:00;101671;;;5.80;74.39
57250;BME280;43102;52.014;-0.680;2023-01-31T01:19:01;101671;;;5.80;74.39
57250;BME280;43102;52.014;-0.680;2023-01-31T01:20:00;101671;;;5.80;74.39
57250;BME280;43102;52.014;-0.680;2023-01-31T01:21:04;101664;;;5.89;74.47
57250;BME280;43102;52.014;-0.680;2023-01-31T01:22:00;101664;;;5.89;74.47
57250;BME280;43102;52.014;-0.680;2023-01-31T01:23:00;101664;;;5.89;74.47
57250;BME280;43102;52.014;-0.680;2023-01-31T01:24:00;101664;;;5.89;74.47
57250;BME280;43102;52.014;-0.680;2023-01-31T01:25:00;101664;;;5.89;74.47
57250;BME280;43102;52.014;-0.680;2023-01-31T01:26:00;101652;;;5.94;74.56
57250;BME280;43102;52.014;-0.680;2023-01-31T01:27:00;101652;;;5.94;74.56
57250;BME280;43102;52.014;-0.680;2023-01-31T01:28:00;101652;;;5.94;74.56
57250;BME280;43102;52.014;-0.680;2023-01-31T01:29:00;101652;;;5.94;74.56
57250;BME280;43102;52.014;-0.680;2023-01-31T01:30:00;101652;;;5.94;74.56
57250;BME280;43102;52.014;-0.680;2023-01-31T01:31:04;101656;;;6.02;74.42
57250;BME280;43102;52.014;-0.680;2023-01-31T01:32:00;101656;;;6.02;74.42
57250;BME280;43102;52.014;-0.680;2023-01-31T01:33:00;101656;;;6.02;74.42
57250;BME280;43102;52.014;-0.680;2023-01-31T01:34:01;101656;;;6.02;74.42
57250;BME280;43102;52.014;-0.680;2023-01-31T01:35:00;101656;;;6.02;74.42
57250;BME280;43102;52.014;-0.680;2023-01-31T01:36:00;101646;;;6.09;74.24
57250;BME280;43102;52.014;-0.680;2023-01-31T01:37:00;101646;;;6.09;74.24
57250;BME280;43102;52.014;-0.680;2023-01-31T01:38:00;101646;;;6.09;74.24
57250;BME280;43102;52.014;-0.680;2023-01-31T01:39:00;101646;;;6.09;74.24
57250;BME280;43102;52.014;-0.680;2023-01-31T01:40:00;101646;;;6.09;74.24
57250;BME280;43102;52.014;-0.680;2023-01-31T01:41:00;101639;;;6.11;74.23
57250;BME280;43102;52.014;-0.680;2023-01-31T01:42:00;101639;;;6.11;74.23
57250;BME280;43102;52.014;-0.680;2023-01-31T01:43:00;101639;;;6.11;74.23
57250;BME280;43102;52.014;-0.680;2023-01-31T01:44:00;101639;;;6.11;74.23
57250;BME280;43102;52.014;-0.680;2023-01-31T01:45:01;101639;;;6.11;74.23
57250;BME280;43102;52.014;-0.680;2023-01-31T01:46:00;101628;;;6.14;74.14
57250;BME280;43102;52.014;-0.680;2023-01-31T01:47:00;101628;;;6.14;74.14
57250;BME280;43102;52.014;-0.680;2023-01-31T01:48:02;101628;;;6.14;74.14
57250;BME280;43102;52.014;-0.680;2023-01-31T01:50:06;101628;;;6.14;74.14
57250;BME280;43102;52.014;-0.680;2023-01-31T01:51:00;101625;;;6.14;74.22
57250;BME280;43102;52.014;-0.680;2023-01-31T01:52:01;101625;;;6.14;74.22
57250;BME280;43102;52.014;-0.680;2023-01-31T01:54:02;101625;;;6.14;74.22
57250;BME280;43102;52.014;-0.680;2023-01-31T01:55:03;101625;;;6.14;74.22
57250;BME280;43102;52.014;-0.680;2023-01-31T01:56:02;101624;;;6.14;74.23
57250;BME280;43102;52.014;-0.680;2023-01-31T01:57:01;101624;;;6.14;74.23
57250;BME280;43102;52.014;-0.680;2023-01-31T01:58:06;101624;;;6.14;74.23
57250;BME280;43102;52.014;-0.680;2023-01-31T01:59:01;101624;;;6.14;74.23
57250;BME280;43102;52.014;-0.680;2023-01-31T02:00:03;101624;;;6.14;74.23
57250;BME280;43102;52.014;-0.680;2023-01-31T02:01:00;101625;;;6.16;74.32
57250;BME280;43102;52.014;-0.680;2023-01-31T02:02:00;101625;;;6.16;74.32
57250;BME280;43102;52.014;-0.680;2023-01-31T02:03:00;101625;;;6.16;74.32
57250;BME280;43102;52.014;-0.680;2023-01-31T02:04:00;101625;;;6.16;74.32
57250;BME280;43102;52.014;-0.680;2023-01-31T02:05:00;101625;;;6.16;74.32
57250;BME280;43102;52.014;-0.680;2023-01-31T02:06:01;101622;;;6.23;74.20
57250;BME280;43102;52.014;-0.680;2023-01-31T02:07:00;101622;;;6.23;74.20
57250;BME280;43102;52.014;-0.680;2023-01-31T02:08:00;101622;;;6.23;74.20
57250;BME280;43102;52.014;-0.680;2023-01-31T02:09:00;101622;;;6.23;74.20
57250;BME280;43102;52.014;-0.680;2023-01-31T02:12:00;101604;;;6.22;74.35
57250;BME280;43102;52.014;-0.680;2023-01-31T02:13:00;101604;;;6.22;74.35
57250;BME280;43102;52.014;-0.680;2023-01-31T02:14:01;101604;;;6.22;74.35
57250;BME280;43102;52.014;-0.680;2023-01-31T02:15:00;101604;;;6.22;74.35
57250;BME280;43102;52.014;-0.680;2023-01-31T02:16:00;101604;;;6.25;74.36
57250;BME280;43102;52.014;-0.680;2023-01-31T02:17:00;101604;;;6.25;74.36
57250;BME280;43102;52.014;-0.680;2023-01-31T02:18:00;101604;;;6.25;74.36
57250;BME280;43102;52.014;-0.680;2023-01-31T02:19:00;101604;;;6.25;74.36
57250;BME280;43102;52.014;-0.680;2023-01-31T02:27:06;101592;;;6.23;74.62
57250;BME280;43102;52.014;-0.680;2023-01-31T02:29:06;101592;;;6.23;74.62
57250;BME280;43102;52.014;-0.680;2023-01-31T02:34:06;101582;;;6.26;74.77
57250;BME280;43102;52.014;-0.680;2023-01-31T02:38:04;101563;;;6.28;74.72
57250;BME280;43102;52.014;-0.680;2023-01-31T02:39:10;101563;;;6.28;74.72
57250;BME280;43102;52.014;-0.680;2023-01-31T02:41:04;101564;;;6.31;74.92
57250;BME280;43102;52.014;-0.680;2023-01-31T02:42:36;101564;;;6.31;74.92
57250;BME280;43102;52.014;-0.680;2023-01-31T02:44:05;101564;;;6.31;74.92
57250;BME280;43102;52.014;-0.680;2023-01-31T02:45:05;101564;;;6.31;74.92
57250;BME280;43102;52.014;-0.680;2023-01-31T02:47:08;101566;;;6.32;75.06
57250;BME280;43102;52.014;-0.680;2023-01-31T02:49:06;101566;;;6.32;75.06
57250;BME280;43102;52.014;-0.680;2023-01-31T02:55:03;101573;;;6.40;74.97
57250;BME280;43102;52.014;-0.680;2023-01-31T02:56:02;101572;;;6.44;74.83
57250;BME280;43102;52.014;-0.680;2023-01-31T02:57:00;101572;;;6.44;74.83
57250;BME280;43102;52.014;-0.680;2023-01-31T02:58:01;101572;;;6.44;74.83
57250;BME280;43102;52.014;-0.680;2023-01-31T02:59:03;101572;;;6.44;74.83
57250;BME280;43102;52.014;-0.680;2023-01-31T03:00:00;101572;;;6.44;74.83
57250;BME280;43102;52.014;-0.680;2023-01-31T03:01:00;101560;;;6.45;74.95
57250;BME280;43102;52.014;-0.680;2023-01-31T03:02:01;101560;;;6.45;74.95
57250;BME280;43102;52.014;-0.680;2023-01-31T03:03:00;101560;;;6.45;74.95
57250;BME280;43102;52.014;-0.680;2023-01-31T03:04:02;101560;;;6.45;74.95
57250;BME280;43102;52.014;-0.680;2023-01-31T03:05:00;101560;;;6.45;74.95
57250;BME280;43102;52.014;-0.680;2023-01-31T03:07:01;101563;;;6.43;75.08
57250;BME280;43102;52.014;-0.680;2023-01-31T03:08:00;101563;;;6.43;75.08
57250;BME280;43102;52.014;-0.680;2023-01-31T03:09:05;101563;;;6.43;75.08
57250;BME280;43102;52.014;-0.680;2023-01-31T03:11:02;101554;;;6.43;75.28
57250;BME280;43102;52.014;-0.680;2023-01-31T03:12:03;101554;;;6.43;75.28
57250;BME280;43102;52.014;-0.680;2023-01-31T03:13:06;101554;;;6.43;75.28
57250;BME280;43102;52.014;-0.680;2023-01-31T03:15:03;101554;;;6.43;75.28
57250;BME280;43102;52.014;-0.680;2023-01-31T03:18:17;101559;;;6.49;75.07
57250;BME280;43102;52.014;-0.680;2023-01-31T03:19:08;101559;;;6.49;75.07
57250;BME280;43102;52.014;-0.680;2023-01-31T03:20:08;101559;;;6.49;75.07
57250;BME280;43102;52.014;-0.680;2023-01-31T03:21:02;101543;;;6.46;75.31
57250;BME280;43102;52.014;-0.680;2023-01-31T03:22:02;101543;;;6.46;75.31
57250;BME280;43102;52.014;-0.680;2023-01-31T03:23:01;101543;;;6.46;75.31
57250;BME280;43102;52.014;-0.680;2023-01-31T03:24:00;101543;;;6.46;75.31
57250;BME280;43102;52.014;-0.680;2023-01-31T03:25:00;101543;;;6.46;75.31
57250;BME280;43102;52.014;-0.680;2023-01-31T03:26:00;101535;;;6.50;75.12
57250;BME280;43102;52.014;-0.680;2023-01-31T03:27:00;101535;;;6.50;75.12
57250;BME280;43102;52.014;-0.680;2023-01-31T03:28:01;101535;;;6.50;75.12
57250;BME280;43102;52.014;-0.680;2023-01-31T03:29:00;101535;;;6.50;75.12
57250;BME280;43102;52.014;-0.680;2023-01-31T03:30:02;101535;;;6.50;75.12
57250;BME280;43102;52.014;-0.680;2023-01-31T03:31:04;101540;;;6.49;75.31
57250;BME280;43102;52.014;-0.680;2023-01-31T03:32:02;101540;;;6.49;75.31
57250;BME280;43102;52.014;-0.680;2023-01-31T03:33:04;101540;;;6.49;75.31
57250;BME280;43102;52.014;-0.680;2023-01-31T03:34:02;101540;;;6.49;75.31
57250;BME280;43102;52.014;-0.680;2023-01-31T03:35:00;101540;;;6.49;75.31
57250;BME280;43102;52.014;-0.680;2023-01-31T03:36:09;101546;;;6.52;75.26
57250;BME280;43102;52.014;-0.680;2023-01-31T03:38:03;101546;;;6.52;75.26
57250;BME280;43102;52.014;-0.680;2023-01-31T03:40:09;101546;;;6.52;75.26
57250;BME280;43102;52.014;-0.680;2023-01-31T03:41:05;101547;;;6.51;75.35
57250;BME280;43102;52.014;-0.680;2023-01-31T03:42:01;101547;;;6.51;75.35
57250;BME280;43102;52.014;-0.680;2023-01-31T03:43:02;101547;;;6.51;75.35
57250;BME280;43102;52.014;-0.680;2023-01-31T03:44:02;101547;;;6.51;75.35
57250;BME280;43102;52.014;-0.680;2023-01-31T03:46:03;101548;;;6.52;75.45
57250;BME280;43102;52.014;-0.680;2023-01-31T03:47:02;101548;;;6.52;75.45
57250;BME280;43102;52.014;-0.680;2023-01-31T03:48:00;101548;;;6.52;75.45
57250;BME280;43102;52.014;-0.680;2023-01-31T03:49:00;101548;;;6.52;75.45
57250;BME280;43102;52.014;-0.680;2023-01-31T03:50:01;101548;;;6.52;75.45
57250;BME280;43102;52.014;-0.680;2023-01-31T03:51:01;101553;;;6.50;75.82
57250;BME280;43102;52.014;-0.680;2023-01-31T03:52:02;101553;;;6.50;75.82
57250;BME280;43102;52.014;-0.680;2023-01-31T03:53:03;101553;;;6.50;75.82
57250;BME280;43102;52.014;-0.680;2023-01-31T03:54:01;101553;;;6.50;75.82
57250;BME280;43102;52.014;-0.680;2023-01-31T03:55:02;101553;;;6.50;75.82
57250;BME280;43102;52.014;-0.680;2023-01-31T03:56:01;101543;;;6.49;76.17
57250;BME280;43102;52.014;-0.680;2023-01-31T03:57:02;101543;;;6.49;76.17
57250;BME280;43102;52.014;-0.680;2023-01-31T03:58:00;101543;;;6.49;76.17
57250;BME280;43102;52.014;-0.680;2023-01-31T03:59:02;101543;;;6.49;76.17
57250;BME280;43102;52.014;-0.680;2023-01-31T04:00:00;101543;;;6.49;76.17
57250;BME280;43102;52.014;-0.680;2023-01-31T04:01:00;101535;;;6.57;75.91
57250;BME280;43102;52.014;-0.680;2023-01-31T04:02:00;101535;;;6.57;75.91
57250;BME280;43102;52.014;-0.680;2023-01-31T04:03:03;101535;;;6.57;75.91
57250;BME280;43102;52.014;-0.680;2023-01-31T04:04:01;101535;;;6.57;75.91
57250;BME280;43102;52.014;-0.680;2023-01-31T04:05:02;101535;;;6.57;75.91
57250;BME280;43102;52.014;-0.680;2023-01-31T04:06:00;101535;;;6.59;76.06
57250;BME280;43102;52.014;-0.680;2023-01-31T04:07:00;101535;;;6.59;76.06
57250;BME280;43102;52.014;-0.680;2023-01-31T04:08:00;101535;;;6.59;76.06
57250;BME280;43102;52.014;-0.680;2023-01-31T04:09:00;101535;;;6.59;76.06
57250;BME280;43102;52.014;-0.680;2023-01-31T04:10:00;101535;;;6.59;76.06
57250;BME280;43102;52.014;-0.680;2023-01-31T04:11:03;101516;;;6.58;76.11
57250;BME280;43102;52.014;-0.680;2023-01-31T04:12:00;101516;;;6.58;76.11
57250;BME280;43102;52.014;-0.680;2023-01-31T04:13:00;101516;;;6.58;76.11
57250;BME280;43102;52.014;-0.680;2023-01-31T04:14:00;101516;;;6.58;76.11
57250;BME280;43102;52.014;-0.680;2023-01-31T04:15:00;101516;;;6.58;76.11
57250;BME280;43102;52.014;-0.680;2023-01-31T04:16:00;101512;;;6.57;76.17
57250;BME280;43102;52.014;-0.680;2023-01-31T04:17:00;101512;;;6.57;76.17
57250;BME280;43102;52.014;-0.680;2023-01-31T04:18:00;101512;;;6.57;76.17
57250;BME280;43102;52.014;-0.680;2023-01-31T04:19:00;101512;;;6.57;76.17
57250;BME280;43102;52.014;-0.680;2023-01-31T04:20:00;101512;;;6.57;76.17
57250;BME280;43102;52.014;-0.680;2023-01-31T04:21:00;101531;;;6.57;76.52
57250;BME280;43102;52.014;-0.680;2023-01-31T04:22:00;101531;;;6.57;76.52
57250;BME280;43102;52.014;-0.680;2023-01-31T04:23:00;101531;;;6.57;76.52
57250;BME280;43102;52.014;-0.680;2023-01-31T04:24:00;101531;;;6.57;76.52
57250;BME280;43102;52.014;-0.680;2023-01-31T04:25:00;101531;;;6.57;76.52
57250;BME280;43102;52.014;-0.680;2023-01-31T04:26:00;101534;;;6.64;76.33
57250;BME280;43102;52.014;-0.680;2023-01-31T04:27:00;101534;;;6.64;76.33
57250;BME280;43102;52.014;-0.680;2023-01-31T04:28:00;101534;;;6.64;76.33
57250;BME280;43102;52.014;-0.680;2023-01-31T04:29:00;101534;;;6.64;76.33
57250;BME280;43102;52.014;-0.680;2023-01-31T04:30:00;101534;;;6.64;76.33
57250;BME280;43102;52.014;-0.680;2023-01-31T04:31:00;101535;;;6.63;76.55
57250;BME280;43102;52.014;-0.680;2023-01-31T04:32:00;101535;;;6.63;76.55
57250;BME280;43102;52.014;-0.680;2023-01-31T04:33:00;101535;;;6.63;76.55
57250;BME280;43102;52.014;-0.680;2023-01-31T04:34:00;101535;;;6.63;76.55
57250;BME280;43102;52.014;-0.680;2023-01-31T04:35:00;101535;;;6.63;76.55
57250;BME280;43102;52.014;-0.680;2023-01-31T04:36:00;101517;;;6.70;76.50
57250;BME280;43102;52.014;-0.680;2023-01-31T04:37:00;101517;;;6.70;76.50
57250;BME280;43102;52.014;-0.680;2023-01-31T04:38:00;101517;;;6.70;76.50
57250;BME280;43102;52.014;-0.680;2023-01-31T04:39:00;101517;;;6.70;76.50
57250;BME280;43102;52.014;-0.680;2023-01-31T04:40:00;101517;;;6.70;76.50
57250;BME280;43102;52.014;-0.680;2023-01-31T04:41:00;101517;;;6.74;76.46
57250;BME280;43102;52.014;-0.680;2023-01-31T04:42:00;101517;;;6.74;76.46
57250;BME280;43102;52.014;-0.680;2023-01-31T04:43:00;101517;;;6.74;76.46
57250;BME280;43102;52.014;-0.680;2023-01-31T04:44:00;101517;;;6.74;76.46
57250;BME280;43102;52.014;-0.680;2023-01-31T04:45:00;101517;;;6.74;76.46
57250;BME280;43102;52.014;-0.680;2023-01-31T04:46:00;101513;;;6.74;76.91
57250;BME280;43102;52.014;-0.680;2023-01-31T04:47:00;101513;;;6.74;76.91
57250;BME280;43102;52.014;-0.680;2023-01-31T04:48:00;101513;;;6.74;76.91
57250;BME280;43102;52.014;-0.680;2023-01-31T04:49:00;101513;;;6.74;76.91
57250;BME280;43102;52.014;-0.680;2023-01-31T04:50:00;101513;;;6.74;76.91
57250;BME280;43102;52.014;-0.680;2023-01-31T04:51:00;101518;;;6.71;77.26
57250;BME280;43102;52.014;-0.680;2023-01-31T04:52:00;101518;;;6.71;77.26
57250;BME280;43102;52.014;-0.680;2023-01-31T04:53:00;101518;;;6.71;77.26
57250;BME280;43102;52.014;-0.680;2023-01-31T04:54:00;101518;;;6.71;77.26
57250;BME280;43102;52.014;-0.680;2023-01-31T04:55:00;101518;;;6.71;77.26
57250;BME280;43102;52.014;-0.680;2023-01-31T04:56:00;101511;;;6.76;77.24
57250;BME280;43102;52.014;-0.680;2023-01-31T04:57:00;101511;;;6.76;77.24
57250;BME280;43102;52.014;-0.680;2023-01-31T04:58:00;101511;;;6.76;77.24
57250;BME280;43102;52.014;-0.680;2023-01-31T04:59:00;101511;;;6.76;77.24
57250;BME280;43102;52.014;-0.680;2023-01-31T05:00:00;101511;;;6.76;77.24
57250;BME280;43102;52.014;-0.680;2023-01-31T05:01:00;101508;;;6.74;77.28
57250;BME280;43102;52.014;-0.680;2023-01-31T05:02:00;101508;;;6.74;77.28
57250;BME280;43102;52.014;-0.680;2023-01-31T05:03:00;101508;;;6.74;77.28
57250;BME280;43102;52.014;-0.680;2023-01-31T05:04:00;101508;;;6.74;77.28
57250;BME280;43102;52.014;-0.680;2023-01-31T05:05:00;101508;;;6.74;77.28
57250;BME280;43102;52.014;-0.680;2023-01-31T05:06:00;101510;;;6.72;77.51
57250;BME280;43102;52.014;-0.680;2023-01-31T05:07:00;101510;;;6.72;77.51
57250;BME280;43102;52.014;-0.680;2023-01-31T05:08:00;101510;;;6.72;77.51
57250;BME280;43102;52.014;-0.680;2023-01-31T05:09:00;101510;;;6.72;77.51
57250;BME280;43102;52.014;-0.680;2023-01-31T05:10:00;101510;;;6.72;77.51
57250;BME280;43102;52.014;-0.680;2023-01-31T05:11:00;101506;;;6.71;78.11
57250;BME280;43102;52.014;-0.680;2023-01-31T05:12:00;101506;;;6.71;78.11
57250;BME280;43102;52.014;-0.680;2023-01-31T05:13:00;101506;;;6.71;78.11
57250;BME280;43102;52.014;-0.680;2023-01-31T05:14:00;101506;;;6.71;78.11
57250;BME280;43102;52.014;-0.680;2023-01-31T05:15:00;101506;;;6.71;78.11
57250;BME280;43102;52.014;-0.680;2023-01-31T05:16:00;101490;;;6.78;77.82
57250;BME280;43102;52.014;-0.680;2023-01-31T05:17:00;101490;;;6.78;77.82
57250;BME280;43102;52.014;-0.680;2023-01-31T05:18:00;101490;;;6.78;77.82
57250;BME280;43102;52.014;-0.680;2023-01-31T05:19:00;101490;;;6.78;77.82
57250;BME280;43102;52.014;-0.680;2023-01-31T05:20:00;101490;;;6.78;77.82
57250;BME280;43102;52.014;-0.680;2023-01-31T05:21:00;101487;;;6.76;78.30
57250;BME280;43102;52.014;-0.680;2023-01-31T05:22:00;101487;;;6.76;78.30
57250;BME280;43102;52.014;-0.680;2023-01-31T05:23:00;101487;;;6.76;78.30
57250;BME280;43102;52.014;-0.680;2023-01-31T05:24:00;101487;;;6.76;78.30
57250;BME280;43102;52.014;-0.680;2023-01-31T05:25:00;101487;;;6.76;78.30
57250;BME280;43102;52.014;-0.680;2023-01-31T05:26:00;101485;;;6.74;78.72
57250;BME280;43102;52.014;-0.680;2023-01-31T05:27:00;101485;;;6.74;78.72
57250;BME280;43102;52.014;-0.680;2023-01-31T05:28:00;101485;;;6.74;78.72
57250;BME280;43102;52.014;-0.680;2023-01-31T05:29:00;101485;;;6.74;78.72
57250;BME280;43102;52.014;-0.680;2023-01-31T05:30:00;101485;;;6.74;78.72
57250;BME280;43102;52.014;-0.680;2023-01-31T05:31:01;101475;;;6.69;79.15
57250;BME280;43102;52.014;-0.680;2023-01-31T05:32:00;101475;;;6.69;79.15
57250;BME280;43102;52.014;-0.680;2023-01-31T05:33:00;101475;;;6.69;79.15
57250;BME280;43102;52.014;-0.680;2023-01-31T05:34:00;101475;;;6.69;79.15
57250;BME280;43102;52.014;-0.680;2023-01-31T05:35:00;101475;;;6.69;79.15
57250;BME280;43102;52.014;-0.680;2023-01-31T05:36:00;101465;;;6.73;78.96
57250;BME280;43102;52.014;-0.680;2023-01-31T05:37:00;101465;;;6.73;78.96
57250;BME280;43102;52.014;-0.680;2023-01-31T05:38:00;101465;;;6.73;78.96
57250;BME280;43102;52.014;-0.680;2023-01-31T05:39:00;101465;;;6.73;78.96
57250;BME280;43102;52.014;-0.680;2023-01-31T05:40:00;101465;;;6.73;78.96
57250;BME280;43102;52.014;-0.680;2023-01-31T05:41:00;101457;;;6.76;78.97
57250;BME280;43102;52.014;-0.680;2023-01-31T05:42:00;101457;;;6.76;78.97
57250;BME280;43102;52.014;-0.680;2023-01-31T05:43:00;101457;;;6.76;78.97
57250;BME280;43102;52.014;-0.680;2023-01-31T05:44:00;101457;;;6.76;78.97
57250;BME280;43102;52.014;-0.680;2023-01-31T05:45:00;101457;;;6.76;78.97
57250;BME280;43102;52.014;-0.680;2023-01-31T05:46:00;101455;;;6.72;79.20
57250;BME280;43102;52.014;-0.680;2023-01-31T05:47:00;101455;;;6.72;79.20
57250;BME280;43102;52.014;-0.680;2023-01-31T05:48:00;101455;;;6.72;79.20
57250;BME280;43102;52.014;-0.680;2023-01-31T05:49:00;101455;;;6.72;79.20
57250;BME280;43102;52.014;-0.680;2023-01-31T05:50:00;101455;;;6.72;79.20
57250;BME280;43102;52.014;-0.680;2023-01-31T05:51:00;101454;;;6.70;79.50
57250;BME280;43102;52.014;-0.680;2023-01-31T05:52:00;101454;;;6.70;79.50
57250;BME280;43102;52.014;-0.680;2023-01-31T05:53:00;101454;;;6.70;79.50
57250;BME280;43102;52.014;-0.680;2023-01-31T05:54:00;101454;;;6.70;79.50
57250;BME280;43102;52.014;-0.680;2023-01-31T05:55:00;101454;;;6.70;79.50
57250;BME280;43102;52.014;-0.680;2023-01-31T05:56:00;101450;;;6.69;79.83
57250;BME280;43102;52.014;-0.680;2023-01-31T05:57:00;101450;;;6.69;79.83
57250;BME280;43102;52.014;-0.680;2023-01-31T05:58:00;101450;;;6.69;79.83
57250;BME280;43102;52.014;-0.680;2023-01-31T05:59:00;101450;;;6.69;79.83
57250;BME280;43102;52.014;-0.680;2023-01-31T06:00:00;101450;;;6.69;79.83
57250;BME280;43102;52.014;-0.680;2023-01-31T06:01:00;101445;;;6.68;79.91
57250;BME280;43102;52.014;-0.680;2023-01-31T06:02:00;101445;;;6.68;79.91
57250;BME280;43102;52.014;-0.680;2023-01-31T06:03:00;101445;;;6.68;79.91